createdAt,value
2022-11-25T00:00:11.444Z,5.68
2022-11-25T00:02:45.857Z,5.15
2022-11-25T00:05:15.431Z,5.05
2022-11-25T00:07:45.022Z,5.20
2022-11-25T00:10:14.693Z,5.00
2022-11-25T00:12:46.759Z,5.22
2022-11-25T00:15:16.379Z,4.90
2022-11-25T00:17:45.916Z,5.43
2022-11-25T00:20:15.680Z,5.70
2022-11-25T00:22:45.130Z,5.60
2022-11-25T00:25:14.615Z,5.55
2022-11-25T00:27:46.620Z,4.93
2022-11-25T00:30:17.216Z,4.80
2022-11-25T00:32:46.676Z,5.35
2022-11-25T00:35:16.182Z,5.15
2022-11-25T00:37:45.616Z,5.40
2022-11-25T00:40:16.310Z,4.38
2022-11-25T00:43:06.684Z,4.07
2022-11-25T00:45:36.169Z,5.00
2022-11-25T00:48:05.675Z,5.47
2022-11-25T00:50:35.145Z,5.50
2022-11-25T00:53:04.578Z,6.13
2022-11-25T00:55:54.511Z,5.55
2022-11-25T00:58:26.618Z,6.43
2022-11-25T01:00:56.184Z,6.57
2022-11-25T01:03:25.698Z,6.35
2022-11-25T01:05:55.159Z,6.13
2022-11-25T01:08:24.595Z,6.50
2022-11-25T01:11:01.263Z,6.25
2022-11-25T01:13:33.335Z,6.15
2022-11-25T01:16:03.971Z,6.97
2022-11-25T01:18:33.714Z,7.25
2022-11-25T01:21:08.663Z,7.35
2022-11-25T01:23:38.147Z,7.40
2022-11-25T01:26:08.343Z,7.97
2022-11-25T01:28:40.336Z,8.50
2022-11-25T01:31:10.806Z,7.60
2022-11-25T01:33:40.443Z,7.68
2022-11-25T01:36:11.504Z,8.10
2022-11-25T01:41:11.349Z,7.72
2022-11-25T01:43:43.678Z,8.20
2022-11-25T01:46:19.452Z,7.65
2022-11-25T01:48:51.475Z,7.82
2022-11-25T01:51:21.988Z,7.78
2022-11-25T01:53:51.745Z,9.13
2022-11-25T01:56:21.384Z,8.18
2022-11-25T01:58:53.575Z,7.28
2022-11-25T02:01:24.223Z,6.68
2022-11-25T02:03:54.397Z,6.22
2022-11-25T02:06:25.518Z,6.10
2022-11-25T02:11:26.161Z,5.07
2022-11-25T02:13:58.430Z,4.97
2022-11-25T02:16:28.112Z,5.80
2022-11-25T02:18:57.745Z,5.13
2022-11-25T02:21:29.051Z,6.47
2022-11-25T02:24:01.593Z,5.43
2022-11-25T02:26:33.802Z,5.57
2022-11-25T02:29:03.429Z,6.43
2022-11-25T02:31:33.102Z,5.70
2022-11-25T02:34:02.849Z,5.50
2022-11-25T02:36:32.323Z,6.00
2022-11-25T02:39:02.307Z,5.03
2022-11-25T02:41:35.064Z,6.05
2022-11-25T02:44:04.506Z,7.13
2022-11-25T02:46:33.978Z,7.43
2022-11-25T02:49:11.024Z,6.75
2022-11-25T02:51:41.532Z,7.57
2022-11-25T02:54:10.966Z,7.25
2022-11-25T02:56:43.047Z,7.60
2022-11-25T02:59:12.725Z,7.18
2022-11-25T03:01:42.296Z,7.18
2022-11-25T03:04:12.000Z,6.75
2022-11-25T03:06:41.591Z,6.60
2022-11-25T03:09:11.122Z,5.95
2022-11-25T03:11:55.652Z,6.30
2022-11-25T03:14:25.108Z,6.15
2022-11-25T03:16:54.606Z,6.70
2022-11-25T03:19:24.120Z,6.65
2022-11-25T03:21:53.614Z,6.50
2022-11-25T03:24:23.307Z,5.88
2022-11-25T03:26:55.385Z,4.80
2022-11-25T03:29:24.868Z,5.70
2022-11-25T03:31:54.412Z,5.45
2022-11-25T03:34:23.945Z,5.53
2022-11-25T03:36:53.471Z,5.72
2022-11-25T03:39:23.725Z,5.88
2022-11-25T03:41:55.813Z,6.50
2022-11-25T03:44:25.290Z,6.93
2022-11-25T03:46:54.792Z,6.93
2022-11-25T03:49:24.578Z,6.53
2022-11-25T03:51:54.015Z,7.43
2022-11-25T03:54:23.459Z,7.18
2022-11-25T03:56:55.499Z,6.80
2022-11-25T03:59:25.113Z,7.28
2022-11-25T04:01:54.638Z,6.63
2022-11-25T04:04:24.112Z,7.07
2022-11-25T04:06:53.537Z,6.90
2022-11-25T04:09:23.075Z,7.38
2022-11-25T04:12:07.572Z,8.70
2022-11-25T04:14:37.345Z,8.95
2022-11-25T04:17:07.030Z,8.07
2022-11-25T04:19:36.529Z,8.63
2022-11-25T04:22:06.071Z,8.50
2022-11-25T04:24:35.840Z,7.38
2022-11-25T04:27:08.092Z,7.55
2022-11-25T04:29:37.554Z,8.70
2022-11-25T04:32:07.664Z,8.82
2022-11-25T04:34:37.270Z,8.70
2022-11-25T04:37:06.866Z,8.70
2022-11-25T04:39:36.326Z,8.43
2022-11-25T04:42:33.970Z,7.85
2022-11-25T04:47:52.994Z,8.07
2022-11-25T04:50:23.530Z,8.27
2022-11-25T04:52:52.973Z,8.20
2022-11-25T04:55:22.456Z,8.05
2022-11-25T04:57:54.506Z,8.20
2022-11-25T05:00:21.728Z,7.97
2022-11-25T05:02:51.295Z,8.38
2022-11-25T05:05:20.811Z,7.85
2022-11-25T05:07:50.446Z,7.63
2022-11-25T05:10:20.143Z,8.25
2022-11-25T05:12:49.616Z,9.00
2022-11-25T05:15:21.659Z,7.72
2022-11-25T05:17:51.105Z,8.80
2022-11-25T05:20:21.413Z,8.85
2022-11-25T05:22:50.952Z,8.20
2022-11-25T05:25:20.935Z,7.88
2022-11-25T05:27:50.392Z,8.50
2022-11-25T05:30:22.647Z,8.70
2022-11-25T05:32:52.114Z,8.05
2022-11-25T05:35:22.084Z,8.50
2022-11-25T05:37:51.507Z,8.68
2022-11-25T05:40:20.986Z,8.95
2022-11-25T05:42:50.695Z,9.10
2022-11-25T05:45:22.758Z,9.90
2022-11-25T05:47:52.215Z,9.77
2022-11-25T05:50:21.671Z,10.75
2022-11-25T05:52:51.185Z,9.45
2022-11-25T05:55:20.639Z,9.68
2022-11-25T05:57:50.075Z,10.43
2022-11-25T06:00:26.624Z,10.60
2022-11-25T06:02:56.589Z,10.30
2022-11-25T06:05:26.196Z,10.10
2022-11-25T06:07:55.722Z,10.98
2022-11-25T06:10:25.298Z,11.20
2022-11-25T06:12:55.403Z,11.20
2022-11-25T06:15:27.455Z,11.38
2022-11-25T06:17:56.881Z,11.23
2022-11-25T06:20:27.148Z,11.15
2022-11-25T06:22:56.644Z,11.82
2022-11-25T06:25:26.136Z,11.52
2022-11-25T06:28:12.281Z,11.25
2022-11-25T06:30:45.221Z,11.23
2022-11-25T06:33:14.952Z,10.82
2022-11-25T06:35:44.430Z,10.65
2022-11-25T06:38:13.882Z,11.57
2022-11-25T06:40:43.340Z,11.32
2022-11-25T06:43:12.804Z,11.43
2022-11-25T06:45:44.858Z,11.50
2022-11-25T06:48:14.332Z,11.73
2022-11-25T06:50:43.804Z,11.48
2022-11-25T06:53:13.275Z,11.13
2022-11-25T06:55:42.702Z,11.25
2022-11-25T06:58:34.263Z,11.18
2022-11-25T07:01:09.463Z,10.68
2022-11-25T07:03:38.968Z,10.75
2022-11-25T07:06:09.042Z,11.07
2022-11-25T07:08:38.547Z,10.90
2022-11-25T07:11:09.035Z,10.70
2022-11-25T07:13:38.527Z,10.88
2022-11-25T07:16:11.295Z,10.52
2022-11-25T07:18:41.389Z,10.75
2022-11-25T07:21:11.937Z,11.18
2022-11-25T07:23:41.475Z,10.50
2022-11-25T07:26:12.096Z,10.20
2022-11-25T07:28:41.637Z,9.90
2022-11-25T07:31:27.593Z,10.18
2022-11-25T07:33:59.396Z,10.52
2022-11-25T07:36:28.928Z,11.95
2022-11-25T07:38:58.424Z,11.65
2022-11-25T07:41:28.681Z,12.05
2022-11-25T07:43:59.022Z,12.20
2022-11-25T07:46:31.922Z,11.88
2022-11-25T07:49:02.326Z,13.00
2022-11-25T07:51:33.215Z,11.52
2022-11-25T07:54:03.397Z,12.10
2022-11-25T07:56:32.986Z,12.37
2022-11-25T07:59:02.539Z,12.60
2022-11-25T08:01:34.753Z,11.95
2022-11-25T08:04:04.307Z,11.52
2022-11-25T08:06:33.858Z,11.80
2022-11-25T08:09:03.438Z,12.00
2022-11-25T08:11:33.694Z,12.13
2022-11-25T08:14:03.245Z,13.60
2022-11-25T08:16:35.414Z,12.80
2022-11-25T08:19:07.156Z,12.88
2022-11-25T08:21:36.711Z,12.13
2022-11-25T08:24:06.541Z,11.82
2022-11-25T08:26:38.402Z,11.55
2022-11-25T08:29:09.382Z,11.82
2022-11-25T08:31:42.685Z,11.88
2022-11-25T08:34:12.365Z,11.98
2022-11-25T08:36:47.786Z,13.25
2022-11-25T08:39:44.096Z,12.90
2022-11-25T08:42:08.054Z,13.25
2022-11-25T08:44:37.670Z,11.98
2022-11-25T08:47:10.128Z,12.88
2022-11-25T08:49:41.549Z,12.45
2022-11-25T08:52:11.669Z,12.57
2022-11-25T08:54:41.358Z,12.23
2022-11-25T08:57:10.827Z,11.60
2022-11-25T08:59:43.850Z,11.77
2022-11-25T09:02:18.314Z,11.77
2022-11-25T09:04:47.861Z,11.48
2022-11-25T09:07:17.461Z,10.93
2022-11-25T09:09:46.984Z,13.50
2022-11-25T09:12:16.479Z,12.77
2022-11-25T09:14:45.935Z,13.93
2022-11-25T09:17:18.245Z,12.15
2022-11-25T09:19:47.710Z,12.23
2022-11-25T09:22:17.212Z,10.55
2022-11-25T09:24:46.727Z,12.40
2022-11-25T09:27:16.215Z,10.95
2022-11-25T09:29:45.698Z,11.88
2022-11-25T09:32:17.828Z,12.15
2022-11-25T09:34:47.307Z,11.98
2022-11-25T09:37:16.851Z,19.70
2022-11-25T09:39:46.323Z,14.10
2022-11-25T09:42:37.977Z,11.90
2022-11-25T09:45:26.498Z,11.73
2022-11-25T09:48:03.359Z,11.80
2022-11-25T09:50:43.585Z,12.27
2022-11-25T09:53:17.335Z,12.50
2022-11-25T09:55:48.506Z,12.07
2022-11-25T10:00:50.388Z,12.98
2022-11-25T10:03:29.954Z,12.32
2022-11-25T10:06:01.872Z,13.23
2022-11-25T10:08:36.241Z,12.57
2022-11-25T10:11:06.615Z,11.73
2022-11-25T10:13:40.004Z,11.80
2022-11-25T10:16:10.612Z,11.45
2022-11-25T10:18:45.283Z,11.63
2022-11-25T10:21:14.809Z,11.23
2022-11-25T10:23:44.335Z,11.90
2022-11-25T10:26:16.370Z,11.43
2022-11-25T10:28:48.314Z,11.38
2022-11-25T10:31:19.477Z,11.73
2022-11-25T10:33:52.960Z,11.73
2022-11-25T10:36:23.658Z,11.77
2022-11-25T10:38:55.291Z,10.82
2022-11-25T10:41:26.455Z,10.68
2022-11-25T10:46:49.669Z,11.32
2022-11-25T10:49:23.114Z,11.57
2022-11-25T10:51:54.709Z,11.18
2022-11-25T10:54:27.919Z,12.05
2022-11-25T10:56:59.309Z,11.38
2022-11-25T10:59:30.869Z,11.57
2022-11-25T11:02:19.191Z,12.40
2022-11-25T11:04:59.883Z,10.95
2022-11-25T11:07:30.265Z,11.25
2022-11-25T11:10:17.597Z,11.85
2022-11-25T11:12:54.756Z,10.68
2022-11-25T11:15:25.404Z,11.48
2022-11-25T11:17:55.012Z,10.85
2022-11-25T11:20:27.744Z,11.48
2022-11-25T11:23:05.540Z,11.05
2022-11-25T11:25:38.586Z,11.18
2022-11-25T11:28:27.727Z,10.93
2022-11-25T11:30:59.804Z,10.70
2022-11-25T11:33:36.704Z,10.35
2022-11-25T11:36:21.266Z,10.77
2022-11-25T11:38:55.453Z,10.52
2022-11-25T11:41:33.023Z,9.52
2022-11-25T11:44:18.968Z,9.65
2022-11-25T11:47:01.901Z,9.82
2022-11-25T11:49:55.436Z,11.02
2022-11-25T11:52:31.276Z,11.43
2022-11-25T11:55:03.434Z,11.05
2022-11-25T11:57:37.342Z,11.63
2022-11-25T12:00:07.440Z,10.70
2022-11-25T12:02:49.650Z,11.32
2022-11-25T12:05:22.104Z,11.02
2022-11-25T12:08:00.775Z,11.27
2022-11-25T12:10:31.516Z,10.90
2022-11-25T12:13:04.552Z,11.35
2022-11-25T12:15:39.582Z,9.90
2022-11-25T12:18:15.037Z,9.30
2022-11-25T12:20:47.234Z,9.55
2022-11-25T12:23:25.320Z,9.23
2022-11-25T12:25:55.658Z,11.75
2022-11-25T12:28:27.123Z,10.35
2022-11-25T12:31:04.981Z,9.68
2022-11-25T12:33:43.919Z,10.32
2022-11-25T12:36:14.897Z,10.10
2022-11-25T12:38:49.008Z,10.10
2022-11-25T12:41:23.313Z,9.98
2022-11-25T12:43:53.562Z,9.32
2022-11-25T12:46:27.558Z,9.57
2022-11-25T12:48:57.326Z,8.75
2022-11-25T12:51:34.227Z,9.40
2022-11-25T12:54:13.410Z,9.27
2022-11-25T12:56:53.533Z,9.02
2022-11-25T12:59:35.750Z,9.38
2022-11-25T13:02:18.313Z,8.73
2022-11-25T13:05:32.886Z,9.43
2022-11-25T13:07:59.594Z,9.32
2022-11-25T13:10:37.030Z,10.15
2022-11-25T13:13:18.507Z,9.73
2022-11-25T13:15:48.740Z,9.63
2022-11-25T13:18:20.147Z,9.33
2022-11-25T13:23:25.632Z,10.07
2022-11-25T13:26:32.671Z,8.82
2022-11-25T13:29:02.384Z,10.30
2022-11-25T13:31:34.221Z,10.45
2022-11-25T13:34:12.105Z,10.35
2022-11-25T13:36:48.992Z,10.60
2022-11-25T13:39:19.156Z,10.32
2022-11-25T13:41:52.230Z,10.43
2022-11-25T13:44:28.189Z,10.52
2022-11-25T13:46:58.396Z,11.05
2022-11-25T13:49:41.111Z,9.63
2022-11-25T13:52:31.143Z,10.18
2022-11-25T13:55:00.593Z,11.13
2022-11-25T13:57:34.742Z,8.50
2022-11-25T14:00:04.889Z,8.70
2022-11-25T14:02:38.251Z,7.95
2022-11-25T14:05:37.518Z,8.35
2022-11-25T14:08:13.804Z,7.72
2022-11-25T14:10:47.703Z,8.02
2022-11-25T14:13:29.166Z,7.72
2022-11-25T14:16:14.639Z,8.25
2022-11-25T14:19:34.999Z,7.90
2022-11-25T14:21:56.433Z,9.90
2022-11-25T14:24:38.901Z,7.97
2022-11-25T14:27:13.568Z,7.88
2022-11-25T14:29:48.139Z,8.05
2022-11-25T14:32:18.633Z,7.50
2022-11-25T14:34:49.825Z,8.32
2022-11-25T14:37:20.472Z,7.43
2022-11-25T14:39:52.171Z,6.95
2022-11-25T14:42:22.463Z,10.98
2022-11-25T14:44:56.024Z,7.80
2022-11-25T14:47:26.198Z,7.47
2022-11-25T14:52:47.692Z,7.40
2022-11-25T14:57:47.308Z,8.90
2022-11-25T15:00:20.368Z,7.03
2022-11-25T15:02:57.238Z,5.50
2022-11-25T15:05:28.477Z,3.35
2022-11-25T15:08:03.209Z,3.63
2022-11-25T15:10:43.276Z,3.47
2022-11-25T15:13:16.008Z,3.42
2022-11-25T15:15:50.217Z,3.40
2022-11-25T15:18:21.387Z,3.40
2022-11-25T15:23:32.003Z,5.90
2022-11-25T15:28:37.081Z,4.05
2022-11-25T15:31:13.845Z,3.60
2022-11-25T15:33:43.433Z,4.13
2022-11-25T15:36:12.982Z,5.55
2022-11-25T15:38:44.264Z,9.10
2022-11-25T15:41:20.518Z,6.25
2022-11-25T15:43:50.672Z,6.15
2022-11-25T15:46:22.821Z,6.10
2022-11-25T15:48:52.776Z,5.13
2022-11-25T15:51:32.378Z,5.75
2022-11-25T15:54:03.715Z,5.50
2022-11-25T15:56:33.220Z,5.25
2022-11-25T15:59:02.727Z,5.90
2022-11-25T16:01:34.882Z,5.35
2022-11-25T16:04:18.920Z,6.03
2022-11-25T16:06:55.908Z,5.90
2022-11-25T16:09:31.281Z,6.25
2022-11-25T16:12:07.740Z,5.93
2022-11-25T16:14:37.792Z,5.55
2022-11-25T16:17:12.928Z,5.70
2022-11-25T16:19:43.882Z,5.40
2022-11-25T16:22:15.151Z,5.65
2022-11-25T16:24:53.031Z,5.88
2022-11-25T16:27:26.105Z,5.47
2022-11-25T16:29:59.907Z,5.90
2022-11-25T16:32:33.031Z,5.05
2022-11-25T16:35:05.880Z,6.15
2022-11-25T16:37:35.403Z,7.72
2022-11-25T16:40:04.908Z,9.15
2022-11-25T16:42:34.820Z,9.70
2022-11-25T16:45:04.294Z,9.60
2022-11-25T16:47:36.394Z,8.88
2022-11-25T16:50:14.406Z,8.10
2022-11-25T16:52:44.231Z,11.18
2022-11-25T16:55:13.770Z,10.07
2022-11-25T16:57:43.347Z,8.00
2022-11-25T17:00:16.904Z,12.30
2022-11-25T17:02:50.694Z,11.50
2022-11-25T17:05:21.490Z,10.70
2022-11-25T17:07:51.323Z,9.38
2022-11-25T17:10:21.607Z,9.55
2022-11-25T17:12:51.172Z,10.33
2022-11-25T17:15:21.553Z,7.68
2022-11-25T17:17:53.928Z,6.60
2022-11-25T17:20:26.065Z,5.25
2022-11-25T17:22:55.745Z,5.03
2022-11-25T17:25:25.671Z,5.13
2022-11-25T17:27:55.173Z,6.00
2022-11-25T17:30:25.916Z,8.68
2022-11-25T17:33:00.429Z,9.25
2022-11-25T17:35:29.913Z,8.48
2022-11-25T17:37:59.547Z,8.30
2022-11-25T17:40:29.118Z,8.35
2022-11-25T17:42:58.665Z,7.78
2022-11-25T17:45:29.533Z,8.05
2022-11-25T17:48:01.704Z,8.20
2022-11-25T17:50:31.183Z,7.70
2022-11-25T17:53:01.290Z,7.60
2022-11-25T17:55:30.784Z,8.57
2022-11-25T17:58:00.293Z,7.85
2022-11-25T18:00:29.961Z,7.30
2022-11-25T18:03:02.149Z,6.90
2022-11-25T18:05:31.788Z,6.10
2022-11-25T18:08:01.364Z,6.40
2022-11-25T18:10:30.904Z,6.80
2022-11-25T18:13:00.397Z,7.95
2022-11-25T18:15:30.907Z,8.82
2022-11-25T18:18:05.239Z,9.80
2022-11-25T18:20:34.900Z,8.77
2022-11-25T18:23:04.374Z,8.50
2022-11-25T18:25:34.591Z,9.82
2022-11-25T18:28:04.147Z,9.33
2022-11-25T18:30:34.532Z,8.73
2022-11-25T18:33:09.106Z,50.75
2022-11-25T18:35:38.609Z,19.30
2022-11-25T18:38:08.275Z,17.50
2022-11-25T18:40:40.184Z,13.80
2022-11-25T18:43:10.100Z,7.85
2022-11-25T18:45:40.397Z,14.18
2022-11-25T18:48:17.879Z,11.98
2022-11-25T18:50:47.615Z,9.82
2022-11-25T18:53:17.203Z,6.88
2022-11-25T18:55:46.778Z,7.78
2022-11-25T18:58:18.362Z,6.47
2022-11-25T19:00:48.591Z,5.55
2022-11-25T19:03:22.454Z,4.57
2022-11-25T19:05:52.124Z,4.13
2022-11-25T19:08:21.631Z,4.70
2022-11-25T19:10:51.166Z,5.30
2022-11-25T19:13:22.044Z,7.18
2022-11-25T19:15:51.551Z,5.80
2022-11-25T19:18:26.707Z,6.85
2022-11-25T19:20:56.275Z,8.38
2022-11-25T19:23:28.808Z,8.15
2022-11-25T19:26:01.084Z,8.43
2022-11-25T19:28:30.616Z,10.25
2022-11-25T19:31:04.464Z,7.35
2022-11-25T19:33:37.478Z,5.40
2022-11-25T19:36:07.389Z,5.43
2022-11-25T19:38:36.843Z,5.82
2022-11-25T19:41:06.306Z,5.10
2022-11-25T19:43:35.786Z,5.63
2022-11-25T19:46:05.734Z,5.43
2022-11-25T19:48:39.134Z,11.90
2022-11-25T19:51:08.792Z,9.88
2022-11-25T19:53:38.256Z,6.18
2022-11-25T19:56:08.922Z,5.15
2022-11-25T19:58:38.343Z,5.53
2022-11-25T20:01:08.165Z,5.90
2022-11-25T20:03:45.069Z,5.70
2022-11-25T20:06:17.808Z,6.20
2022-11-25T20:08:47.320Z,4.63
2022-11-25T20:11:17.304Z,4.25
2022-11-25T20:13:46.966Z,4.55
2022-11-25T20:16:18.219Z,4.90
2022-11-25T20:18:50.263Z,4.32
2022-11-25T20:21:22.465Z,4.07
2022-11-25T20:23:51.896Z,3.92
2022-11-25T20:26:22.811Z,4.28
2022-11-25T20:28:52.275Z,3.95
2022-11-25T20:31:22.170Z,7.50
2022-11-25T20:33:54.888Z,6.40
2022-11-25T20:36:25.829Z,6.93
2022-11-25T20:38:58.864Z,5.60
2022-11-25T20:41:28.354Z,5.47
2022-11-25T20:43:58.086Z,5.20
2022-11-25T20:46:29.469Z,5.30
2022-11-25T20:49:02.292Z,4.20
2022-11-25T20:51:31.866Z,4.63
2022-11-25T20:54:03.326Z,4.28
2022-11-25T20:56:33.021Z,4.13
2022-11-25T20:59:02.448Z,3.85
2022-11-25T21:01:31.908Z,5.00
2022-11-25T21:04:03.946Z,5.15
2022-11-25T21:06:36.574Z,6.32
2022-11-25T21:09:13.419Z,5.35
2022-11-25T21:11:42.879Z,5.32
2022-11-25T21:14:13.806Z,4.70
2022-11-25T21:16:43.283Z,4.78
2022-11-25T21:19:15.409Z,4.75
2022-11-25T21:21:45.786Z,5.57
2022-11-25T21:24:21.317Z,5.50
2022-11-25T21:26:50.871Z,5.10
2022-11-25T21:29:20.335Z,6.13
2022-11-25T21:31:49.847Z,5.93
2022-11-25T21:34:22.009Z,7.03
2022-11-25T21:36:52.865Z,9.25
2022-11-25T21:39:30.039Z,8.73
2022-11-25T21:42:00.836Z,9.00
2022-11-25T21:44:33.160Z,9.27
2022-11-25T21:47:02.935Z,8.63
2022-11-25T21:49:34.994Z,6.45
2022-11-25T21:52:04.451Z,5.80
2022-11-25T21:54:33.902Z,4.95
2022-11-25T21:57:03.402Z,5.13
2022-11-25T21:59:32.852Z,5.53
2022-11-25T22:02:02.315Z,5.63
2022-11-25T22:04:31.747Z,5.13
2022-11-25T22:07:03.819Z,4.78
2022-11-25T22:09:33.275Z,4.88
2022-11-25T22:12:02.775Z,5.13
2022-11-25T22:14:34.755Z,4.95
2022-11-25T22:17:04.491Z,5.13
2022-11-25T22:19:33.988Z,4.28
2022-11-25T22:22:06.025Z,4.32
2022-11-25T22:24:35.653Z,5.60
2022-11-25T22:27:07.213Z,5.68
2022-11-25T22:29:37.518Z,5.57
2022-11-25T22:32:12.418Z,5.35
2022-11-25T22:34:42.221Z,5.40
2022-11-25T22:37:17.762Z,5.50
2022-11-25T22:39:47.300Z,5.40
2022-11-25T22:42:28.012Z,8.05
2022-11-25T22:44:57.769Z,12.27
2022-11-25T22:47:29.669Z,7.50
2022-11-25T22:49:59.160Z,7.60
2022-11-25T22:52:32.802Z,7.18
2022-11-25T22:55:02.383Z,6.50
2022-11-25T22:57:32.147Z,6.63
2022-11-25T23:00:01.875Z,6.65
2022-11-25T23:02:34.750Z,8.85
2022-11-25T23:05:04.424Z,7.50
2022-11-25T23:07:36.519Z,5.45
2022-11-25T23:10:08.853Z,4.68
2022-11-25T23:12:38.340Z,4.68
2022-11-25T23:15:08.980Z,5.32
2022-11-25T23:17:38.432Z,4.97
2022-11-25T23:20:15.575Z,4.65
2022-11-25T23:22:47.628Z,4.05
2022-11-25T23:25:18.641Z,4.50
2022-11-25T23:27:48.110Z,4.30
2022-11-25T23:30:18.544Z,4.65
2022-11-25T23:32:48.260Z,4.80
2022-11-25T23:35:18.712Z,4.43
2022-11-25T23:37:56.430Z,5.05
2022-11-25T23:40:26.906Z,4.03
2022-11-25T23:42:56.496Z,4.38
2022-11-25T23:45:27.320Z,4.70
2022-11-25T23:47:57.743Z,4.53
2022-11-25T23:50:30.577Z,4.57
2022-11-25T23:53:04.326Z,4.57
2022-11-25T23:55:35.063Z,5.15
2022-11-25T23:58:05.054Z,5.25
